Terminal Aerodrome Forecast
Issued by NWS

Home | Current Version | Previous Version | Text Only | Print | Product List | Glossary On
Versions: 1 2 3 4 5 6 7 8 9 10 11 12 13 14 15 16 17 18 19 20 21 22 23
000
FTUS44 KBMX 241300 AAA
TAFTCL
TAF AMD
KTCL 241325Z 2413/2512 20005KT P6SM FEW002
     FM241600 26004KT P6SM VCSH BKN025 BKN080
     FM241800 27005KT P6SM VCTS BKN035CB
     FM242100 30005KT P6SM SCT040
     FM250800 00000KT 3SM BR SKC=

USA.gov is the U.S. government's official web portal to all federal, state and local government web resources and services.